Terminal Aerodrome Forecast
Issued by NWS Shreveport, LA

Current Version | Previous Version | Text Only | Print | Product List | Glossary On
Versions: 1 2 3 4 5 6 7 8 9 10 11 12 13 14 15 16 17 18 19 20 21 22 23 24
000
FTUS44 KSHV 040500
TAFSHV
TAF
KSHV 040525Z 0406/0506 19008KT P6SM OVC080
     FM040900 18005KT 5SM BR BKN015
      TEMPO 0411/0415 2SM BR OVC004
     FM041500 21006KT P6SM VCTS OVC010CB
      TEMPO 0416/0420 3SM TSRA BR BKN020CB
     FM042000 01015G25KT P6SM -RA OVC005=

USA.gov is the U.S. government's official web portal to all federal, state and local government web resources and services.